sensor_id;sensor_type;location;lat;lon;timestamp;temperature;humidity
6948;DHT22;3513;47.664;9.162;2022-11-15T00:00:47;8.40;99.90
6948;DHT22;3513;47.664;9.162;2022-11-15T00:03:18;7.10;99.90
6948;DHT22;3513;47.664;9.162;2022-11-15T00:05:44;7.10;99.90
6948;DHT22;3513;47.664;9.162;2022-11-15T00:08:10;7.10;99.90
6948;DHT22;3513;47.664;9.162;2022-11-15T00:10:37;7.10;99.90
6948;DHT22;3513;47.664;9.162;2022-11-15T00:13:09;7.20;99.90
6948;DHT22;3513;47.664;9.162;2022-11-15T00:15:39;7.20;99.90
6948;DHT22;3513;47.664;9.162;2022-11-15T00:18:09;7.30;99.90
6948;DHT22;3513;47.664;9.162;2022-11-15T00:20:37;7.30;99.90
6948;DHT22;3513;47.664;9.162;2022-11-15T00:23:06;7.30;99.90
6948;DHT22;3513;47.664;9.162;2022-11-15T00:25:32;7.30;99.90
6948;DHT22;3513;47.664;9.162;2022-11-15T00:27:59;7.30;99.90
6948;DHT22;3513;47.664;9.162;2022-11-15T00:30:26;7.20;99.90
6948;DHT22;3513;47.664;9.162;2022-11-15T00:32:52;7.30;99.90
6948;DHT22;3513;47.664;9.162;2022-11-15T00:35:18;7.20;99.90
6948;DHT22;3513;47.664;9.162;2022-11-15T00:37:44;7.20;99.90
6948;DHT22;3513;47.664;9.162;2022-11-15T00:40:10;7.20;99.90
6948;DHT22;3513;47.664;9.162;2022-11-15T00:42:38;7.20;99.90
6948;DHT22;3513;47.664;9.162;2022-11-15T00:45:04;7.20;99.90
6948;DHT22;3513;47.664;9.162;2022-11-15T00:47:30;7.30;99.90
6948;DHT22;3513;47.664;9.162;2022-11-15T00:49:55;7.30;99.90
6948;DHT22;3513;47.664;9.162;2022-11-15T00:52:21;7.40;99.90
6948;DHT22;3513;47.664;9.162;2022-11-15T00:54:47;7.40;99.90
6948;DHT22;3513;47.664;9.162;2022-11-15T00:57:12;7.30;99.90
6948;DHT22;3513;47.664;9.162;2022-11-15T00:59:38;7.30;99.90
6948;DHT22;3513;47.664;9.162;2022-11-15T01:02:03;7.20;99.90
6948;DHT22;3513;47.664;9.162;2022-11-15T01:04:29;7.20;99.90
6948;DHT22;3513;47.664;9.162;2022-11-15T01:06:54;7.10;99.90
6948;DHT22;3513;47.664;9.162;2022-11-15T01:09:20;7.10;99.90
6948;DHT22;3513;47.664;9.162;2022-11-15T01:11:46;7.20;99.90
6948;DHT22;3513;47.664;9.162;2022-11-15T01:14:11;7.20;99.90
6948;DHT22;3513;47.664;9.162;2022-11-15T01:16:37;7.20;99.90
6948;DHT22;3513;47.664;9.162;2022-11-15T01:19:03;7.20;99.90
6948;DHT22;3513;47.664;9.162;2022-11-15T01:21:29;7.10;99.90
6948;DHT22;3513;47.664;9.162;2022-11-15T01:23:56;7.10;99.90
6948;DHT22;3513;47.664;9.162;2022-11-15T01:26:23;7.00;99.90
6948;DHT22;3513;47.664;9.162;2022-11-15T01:28:49;7.00;99.90
6948;DHT22;3513;47.664;9.162;2022-11-15T01:31:19;7.00;99.90
6948;DHT22;3513;47.664;9.162;2022-11-15T01:33:46;7.00;99.90
6948;DHT22;3513;47.664;9.162;2022-11-15T01:36:15;6.90;99.90
6948;DHT22;3513;47.664;9.162;2022-11-15T01:38:41;6.90;99.90
6948;DHT22;3513;47.664;9.162;2022-11-15T01:41:12;6.90;99.90
6948;DHT22;3513;47.664;9.162;2022-11-15T01:43:39;7.10;99.90
6948;DHT22;3513;47.664;9.162;2022-11-15T01:48:42;7.00;99.90
6948;DHT22;3513;47.664;9.162;2022-11-15T01:51:11;7.00;99.90
6948;DHT22;3513;47.664;9.162;2022-11-15T01:53:40;7.00;99.90
6948;DHT22;3513;47.664;9.162;2022-11-15T01:56:11;7.00;99.90
6948;DHT22;3513;47.664;9.162;2022-11-15T01:58:40;7.00;99.90
6948;DHT22;3513;47.664;9.162;2022-11-15T02:01:06;7.00;99.90
6948;DHT22;3513;47.664;9.162;2022-11-15T02:03:49;7.00;99.90
6948;DHT22;3513;47.664;9.162;2022-11-15T02:06:15;7.00;99.90
6948;DHT22;3513;47.664;9.162;2022-11-15T02:08:42;7.00;99.90
6948;DHT22;3513;47.664;9.162;2022-11-15T02:11:08;7.00;99.90
6948;DHT22;3513;47.664;9.162;2022-11-15T02:13:35;7.00;99.90
6948;DHT22;3513;47.664;9.162;2022-11-15T02:16:16;7.00;99.90
6948;DHT22;3513;47.664;9.162;2022-11-15T02:25:13;6.90;99.90
6948;DHT22;3513;47.664;9.162;2022-11-15T02:30:38;6.80;99.90
6948;DHT22;3513;47.664;9.162;2022-11-15T02:35:57;6.80;99.90
6948;DHT22;3513;47.664;9.162;2022-11-15T02:38:38;6.80;99.90
6948;DHT22;3513;47.664;9.162;2022-11-15T02:44:39;6.90;99.90
6948;DHT22;3513;47.664;9.162;2022-11-15T02:47:11;6.80;99.90
6948;DHT22;3513;47.664;9.162;2022-11-15T02:49:41;6.80;99.90
6948;DHT22;3513;47.664;9.162;2022-11-15T02:52:07;6.70;99.90
6948;DHT22;3513;47.664;9.162;2022-11-15T02:54:34;6.60;99.90
6948;DHT22;3513;47.664;9.162;2022-11-15T02:57:04;6.60;99.90
6948;DHT22;3513;47.664;9.162;2022-11-15T02:59:59;6.70;99.90
6948;DHT22;3513;47.664;9.162;2022-11-15T03:05:43;6.60;99.90
6948;DHT22;3513;47.664;9.162;2022-11-15T03:11:15;6.60;99.90
6948;DHT22;3513;47.664;9.162;2022-11-15T03:16:44;6.70;99.90
6948;DHT22;3513;47.664;9.162;2022-11-15T03:21:41;6.70;99.90
6948;DHT22;3513;47.664;9.162;2022-11-15T03:24:08;6.70;99.90
6948;DHT22;3513;47.664;9.162;2022-11-15T03:26:37;6.70;99.90
6948;DHT22;3513;47.664;9.162;2022-11-15T03:29:08;6.70;99.90
6948;DHT22;3513;47.664;9.162;2022-11-15T03:31:39;6.70;99.90
6948;DHT22;3513;47.664;9.162;2022-11-15T03:34:25;6.80;99.90
6948;DHT22;3513;47.664;9.162;2022-11-15T03:36:52;6.80;99.90
6948;DHT22;3513;47.664;9.162;2022-11-15T03:39:19;6.70;99.90
6948;DHT22;3513;47.664;9.162;2022-11-15T03:47:38;6.80;99.90
6948;DHT22;3513;47.664;9.162;2022-11-15T03:50:11;6.80;99.90
6948;DHT22;3513;47.664;9.162;2022-11-15T03:52:40;6.80;99.90
6948;DHT22;3513;47.664;9.162;2022-11-15T03:55:09;6.70;99.90
6948;DHT22;3513;47.664;9.162;2022-11-15T03:57:35;6.70;99.90
6948;DHT22;3513;47.664;9.162;2022-11-15T04:00:03;6.70;99.90
6948;DHT22;3513;47.664;9.162;2022-11-15T04:02:28;6.60;99.90
6948;DHT22;3513;47.664;9.162;2022-11-15T04:04:54;6.60;99.90
6948;DHT22;3513;47.664;9.162;2022-11-15T04:07:20;6.60;99.90
6948;DHT22;3513;47.664;9.162;2022-11-15T04:09:45;6.60;99.90
6948;DHT22;3513;47.664;9.162;2022-11-15T04:12:32;6.60;99.90
6948;DHT22;3513;47.664;9.162;2022-11-15T04:15:12;6.60;99.90
6948;DHT22;3513;47.664;9.162;2022-11-15T04:17:44;6.60;99.90
6948;DHT22;3513;47.664;9.162;2022-11-15T04:20:22;6.70;99.90
6948;DHT22;3513;47.664;9.162;2022-11-15T04:23:15;6.70;99.90
6948;DHT22;3513;47.664;9.162;2022-11-15T04:26:11;6.70;99.90
6948;DHT22;3513;47.664;9.162;2022-11-15T04:28:38;6.80;99.90
6948;DHT22;3513;47.664;9.162;2022-11-15T04:31:24;6.80;99.90
6948;DHT22;3513;47.664;9.162;2022-11-15T04:33:49;6.80;99.90
6948;DHT22;3513;47.664;9.162;2022-11-15T04:36:15;6.70;99.90
6948;DHT22;3513;47.664;9.162;2022-11-15T04:38:59;6.80;99.90
6948;DHT22;3513;47.664;9.162;2022-11-15T04:41:28;6.80;99.90
6948;DHT22;3513;47.664;9.162;2022-11-15T04:43:54;6.80;99.90
6948;DHT22;3513;47.664;9.162;2022-11-15T04:46:21;6.80;99.90
6948;DHT22;3513;47.664;9.162;2022-11-15T04:48:46;6.80;99.90
6948;DHT22;3513;47.664;9.162;2022-11-15T04:51:12;6.70;99.90
6948;DHT22;3513;47.664;9.162;2022-11-15T04:53:38;6.70;99.90
6948;DHT22;3513;47.664;9.162;2022-11-15T04:56:04;6.70;99.90
6948;DHT22;3513;47.664;9.162;2022-11-15T04:58:29;6.80;99.90
6948;DHT22;3513;47.664;9.162;2022-11-15T05:00:55;6.70;99.90
6948;DHT22;3513;47.664;9.162;2022-11-15T05:03:21;6.70;99.90
6948;DHT22;3513;47.664;9.162;2022-11-15T05:06:05;6.70;99.90
6948;DHT22;3513;47.664;9.162;2022-11-15T05:08:32;6.80;99.90
6948;DHT22;3513;47.664;9.162;2022-11-15T05:10:57;6.80;99.90
6948;DHT22;3513;47.664;9.162;2022-11-15T05:13:23;6.80;99.90
6948;DHT22;3513;47.664;9.162;2022-11-15T05:15:49;6.80;99.90
6948;DHT22;3513;47.664;9.162;2022-11-15T05:18:14;6.80;99.90
6948;DHT22;3513;47.664;9.162;2022-11-15T05:20:40;6.80;99.90
6948;DHT22;3513;47.664;9.162;2022-11-15T05:23:06;6.70;99.90
6948;DHT22;3513;47.664;9.162;2022-11-15T05:25:32;6.70;99.90
6948;DHT22;3513;47.664;9.162;2022-11-15T05:27:58;6.70;99.90
6948;DHT22;3513;47.664;9.162;2022-11-15T05:30:27;6.70;99.90
6948;DHT22;3513;47.664;9.162;2022-11-15T05:32:53;6.70;99.90
6948;DHT22;3513;47.664;9.162;2022-11-15T05:35:29;6.70;99.90
6948;DHT22;3513;47.664;9.162;2022-11-15T05:37:58;5.70;99.90
6948;DHT22;3513;47.664;9.162;2022-11-15T05:40:24;6.70;99.90
6948;DHT22;3513;47.664;9.162;2022-11-15T05:42:52;6.70;99.90
6948;DHT22;3513;47.664;9.162;2022-11-15T05:45:24;6.70;99.90
6948;DHT22;3513;47.664;9.162;2022-11-15T05:47:50;7.90;99.90
6948;DHT22;3513;47.664;9.162;2022-11-15T05:50:25;6.60;99.90
6948;DHT22;3513;47.664;9.162;2022-11-15T05:52:51;6.50;99.90
6948;DHT22;3513;47.664;9.162;2022-11-15T05:55:17;6.50;99.90
6948;DHT22;3513;47.664;9.162;2022-11-15T05:57:44;6.50;99.90
6948;DHT22;3513;47.664;9.162;2022-11-15T06:00:11;6.50;99.90
6948;DHT22;3513;47.664;9.162;2022-11-15T06:02:37;6.50;99.90
6948;DHT22;3513;47.664;9.162;2022-11-15T06:05:06;6.50;99.90
6948;DHT22;3513;47.664;9.162;2022-11-15T06:07:32;6.60;99.90
6948;DHT22;3513;47.664;9.162;2022-11-15T06:09:58;5.50;99.90
6948;DHT22;3513;47.664;9.162;2022-11-15T06:12:23;6.60;99.90
6948;DHT22;3513;47.664;9.162;2022-11-15T06:14:49;6.70;99.90
6948;DHT22;3513;47.664;9.162;2022-11-15T06:17:14;6.60;99.90
6948;DHT22;3513;47.664;9.162;2022-11-15T06:19:40;6.60;99.90
6948;DHT22;3513;47.664;9.162;2022-11-15T06:22:05;6.60;99.90
6948;DHT22;3513;47.664;9.162;2022-11-15T06:24:31;6.60;99.90
6948;DHT22;3513;47.664;9.162;2022-11-15T06:26:57;6.60;99.90
6948;DHT22;3513;47.664;9.162;2022-11-15T06:29:23;6.70;99.90
6948;DHT22;3513;47.664;9.162;2022-11-15T06:31:48;6.70;99.90
6948;DHT22;3513;47.664;9.162;2022-11-15T06:34:14;6.70;99.90
6948;DHT22;3513;47.664;9.162;2022-11-15T06:36:40;6.70;99.90
6948;DHT22;3513;47.664;9.162;2022-11-15T06:39:06;6.70;99.90
6948;DHT22;3513;47.664;9.162;2022-11-15T06:41:34;6.60;99.90
6948;DHT22;3513;47.664;9.162;2022-11-15T06:44:00;6.60;99.90
6948;DHT22;3513;47.664;9.162;2022-11-15T06:46:26;6.60;99.90
6948;DHT22;3513;47.664;9.162;2022-11-15T06:48:52;6.60;99.90
6948;DHT22;3513;47.664;9.162;2022-11-15T06:51:19;6.70;99.90
6948;DHT22;3513;47.664;9.162;2022-11-15T06:53:44;6.70;99.90
6948;DHT22;3513;47.664;9.162;2022-11-15T06:56:10;6.70;99.90
6948;DHT22;3513;47.664;9.162;2022-11-15T06:58:36;6.70;99.90
6948;DHT22;3513;47.664;9.162;2022-11-15T07:01:04;6.70;99.90
6948;DHT22;3513;47.664;9.162;2022-11-15T07:03:30;6.90;99.90
6948;DHT22;3513;47.664;9.162;2022-11-15T07:05:57;6.70;99.90
6948;DHT22;3513;47.664;9.162;2022-11-15T07:08:23;6.70;99.90
6948;DHT22;3513;47.664;9.162;2022-11-15T07:10:52;6.80;99.90
6948;DHT22;3513;47.664;9.162;2022-11-15T07:13:17;6.90;99.90
6948;DHT22;3513;47.664;9.162;2022-11-15T07:15:43;6.90;99.90
6948;DHT22;3513;47.664;9.162;2022-11-15T07:18:09;7.00;99.90
6948;DHT22;3513;47.664;9.162;2022-11-15T07:20:35;7.00;99.90
6948;DHT22;3513;47.664;9.162;2022-11-15T07:23:04;7.00;99.90
6948;DHT22;3513;47.664;9.162;2022-11-15T07:25:30;6.90;99.90
6948;DHT22;3513;47.664;9.162;2022-11-15T07:27:57;6.90;99.90
6948;DHT22;3513;47.664;9.162;2022-11-15T07:30:24;7.00;99.90
6948;DHT22;3513;47.664;9.162;2022-11-15T07:32:58;7.00;99.90
6948;DHT22;3513;47.664;9.162;2022-11-15T07:35:25;7.00;99.90
6948;DHT22;3513;47.664;9.162;2022-11-15T07:37:55;7.00;99.90
6948;DHT22;3513;47.664;9.162;2022-11-15T07:40:21;7.00;99.90
6948;DHT22;3513;47.664;9.162;2022-11-15T07:42:46;7.00;99.90
6948;DHT22;3513;47.664;9.162;2022-11-15T07:45:18;7.00;99.90
6948;DHT22;3513;47.664;9.162;2022-11-15T07:47:48;6.90;99.90
6948;DHT22;3513;47.664;9.162;2022-11-15T07:50:14;6.90;99.90
6948;DHT22;3513;47.664;9.162;2022-11-15T07:52:40;6.90;99.90
6948;DHT22;3513;47.664;9.162;2022-11-15T07:55:06;6.90;99.90
6948;DHT22;3513;47.664;9.162;2022-11-15T07:57:32;7.00;99.90
6948;DHT22;3513;47.664;9.162;2022-11-15T07:59:57;7.00;99.90
6948;DHT22;3513;47.664;9.162;2022-11-15T08:02:23;7.10;99.90
6948;DHT22;3513;47.664;9.162;2022-11-15T08:04:48;7.10;99.90
6948;DHT22;3513;47.664;9.162;2022-11-15T08:07:14;7.10;99.90
6948;DHT22;3513;47.664;9.162;2022-11-15T08:09:40;7.30;99.90
6948;DHT22;3513;47.664;9.162;2022-11-15T08:12:06;7.30;99.90
6948;DHT22;3513;47.664;9.162;2022-11-15T08:14:31;7.30;99.90
6948;DHT22;3513;47.664;9.162;2022-11-15T08:16:57;7.30;99.90
6948;DHT22;3513;47.664;9.162;2022-11-15T08:19:23;7.40;99.90
6948;DHT22;3513;47.664;9.162;2022-11-15T08:21:49;7.40;99.90
6948;DHT22;3513;47.664;9.162;2022-11-15T08:24:15;7.30;99.90
6948;DHT22;3513;47.664;9.162;2022-11-15T08:26:41;7.30;99.90
6948;DHT22;3513;47.664;9.162;2022-11-15T08:29:07;7.30;99.90
6948;DHT22;3513;47.664;9.162;2022-11-15T08:31:35;7.40;99.90
6948;DHT22;3513;47.664;9.162;2022-11-15T08:34:02;7.40;99.90
6948;DHT22;3513;47.664;9.162;2022-11-15T08:36:28;7.40;99.90
6948;DHT22;3513;47.664;9.162;2022-11-15T08:38:54;7.40;99.90
6948;DHT22;3513;47.664;9.162;2022-11-15T08:41:26;7.50;99.90
6948;DHT22;3513;47.664;9.162;2022-11-15T08:43:52;7.40;99.90
6948;DHT22;3513;47.664;9.162;2022-11-15T08:46:17;7.40;99.90
6948;DHT22;3513;47.664;9.162;2022-11-15T08:48:44;7.50;99.90
6948;DHT22;3513;47.664;9.162;2022-11-15T08:51:10;7.60;99.90
6948;DHT22;3513;47.664;9.162;2022-11-15T08:53:35;7.70;99.90
6948;DHT22;3513;47.664;9.162;2022-11-15T08:56:01;7.70;99.90
6948;DHT22;3513;47.664;9.162;2022-11-15T08:58:27;7.80;99.90
6948;DHT22;3513;47.664;9.162;2022-11-15T09:00:53;7.90;99.90
6948;DHT22;3513;47.664;9.162;2022-11-15T09:03:19;8.00;99.90
6948;DHT22;3513;47.664;9.162;2022-11-15T09:05:44;8.10;99.90
6948;DHT22;3513;47.664;9.162;2022-11-15T09:08:10;8.10;99.90
6948;DHT22;3513;47.664;9.162;2022-11-15T09:10:36;8.30;99.90
6948;DHT22;3513;47.664;9.162;2022-11-15T09:13:02;8.30;99.90
6948;DHT22;3513;47.664;9.162;2022-11-15T09:15:28;10.00;99.90
6948;DHT22;3513;47.664;9.162;2022-11-15T09:17:53;8.50;99.90
6948;DHT22;3513;47.664;9.162;2022-11-15T09:20:19;8.50;99.90
6948;DHT22;3513;47.664;9.162;2022-11-15T09:22:44;8.50;99.90
6948;DHT22;3513;47.664;9.162;2022-11-15T09:25:10;8.40;99.90
6948;DHT22;3513;47.664;9.162;2022-11-15T09:27:35;8.50;99.90
6948;DHT22;3513;47.664;9.162;2022-11-15T09:30:02;8.60;99.90
6948;DHT22;3513;47.664;9.162;2022-11-15T09:32:30;8.70;99.90
6948;DHT22;3513;47.664;9.162;2022-11-15T09:34:56;8.70;99.90
6948;DHT22;3513;47.664;9.162;2022-11-15T09:37:22;8.70;99.90
6948;DHT22;3513;47.664;9.162;2022-11-15T09:39:48;8.70;99.90
6948;DHT22;3513;47.664;9.162;2022-11-15T09:47:56;8.50;99.90
6948;DHT22;3513;47.664;9.162;2022-11-15T09:50:34;8.30;99.90
6948;DHT22;3513;47.664;9.162;2022-11-15T09:53:01;8.30;99.90
6948;DHT22;3513;47.664;9.162;2022-11-15T09:55:38;8.30;99.90
6948;DHT22;3513;47.664;9.162;2022-11-15T09:58:33;8.50;99.90
6948;DHT22;3513;47.664;9.162;2022-11-15T10:01:07;8.70;99.90
6948;DHT22;3513;47.664;9.162;2022-11-15T10:03:35;8.80;99.90
6948;DHT22;3513;47.664;9.162;2022-11-15T10:06:04;8.70;99.90
6948;DHT22;3513;47.664;9.162;2022-11-15T10:11:14;8.70;99.90
6948;DHT22;3513;47.664;9.162;2022-11-15T10:13:44;8.70;99.90
6948;DHT22;3513;47.664;9.162;2022-11-15T10:21:46;8.60;99.90
6948;DHT22;3513;47.664;9.162;2022-11-15T10:24:20;8.40;99.90
6948;DHT22;3513;47.664;9.162;2022-11-15T10:26:49;8.30;99.90
6948;DHT22;3513;47.664;9.162;2022-11-15T10:29:23;8.30;99.90
6948;DHT22;3513;47.664;9.162;2022-11-15T10:31:49;8.20;99.90
6948;DHT22;3513;47.664;9.162;2022-11-15T10:34:21;8.10;99.90
6948;DHT22;3513;47.664;9.162;2022-11-15T10:36:58;8.20;99.90
6948;DHT22;3513;47.664;9.162;2022-11-15T10:39:24;8.20;99.90
6948;DHT22;3513;47.664;9.162;2022-11-15T10:41:51;8.30;99.90
6948;DHT22;3513;47.664;9.162;2022-11-15T10:44:18;8.30;99.90
6948;DHT22;3513;47.664;9.162;2022-11-15T10:46:47;8.30;99.90
6948;DHT22;3513;47.664;9.162;2022-11-15T10:49:26;8.20;99.90
6948;DHT22;3513;47.664;9.162;2022-11-15T10:55:19;8.20;99.90
6948;DHT22;3513;47.664;9.162;2022-11-15T10:57:21;8.30;99.90
6948;DHT22;3513;47.664;9.162;2022-11-15T10:59:51;8.30;99.90
6948;DHT22;3513;47.664;9.162;2022-11-15T11:04:57;8.30;99.90
6948;DHT22;3513;47.664;9.162;2022-11-15T11:07:26;8.20;99.90
6948;DHT22;3513;47.664;9.162;2022-11-15T11:10:02;8.20;99.90
6948;DHT22;3513;47.664;9.162;2022-11-15T11:12:33;8.20;99.90
6948;DHT22;3513;47.664;9.162;2022-11-15T11:15:00;8.20;99.90
6948;DHT22;3513;47.664;9.162;2022-11-15T11:20:31;8.30;99.90
6948;DHT22;3513;47.664;9.162;2022-11-15T11:49:01;8.60;99.90
6948;DHT22;3513;47.664;9.162;2022-11-15T11:51:34;8.60;99.90
6948;DHT22;3513;47.664;9.162;2022-11-15T11:57:03;8.80;99.90
6948;DHT22;3513;47.664;9.162;2022-11-15T11:59:50;8.80;99.90
6948;DHT22;3513;47.664;9.162;2022-11-15T12:02:38;9.00;99.90
6948;DHT22;3513;47.664;9.162;2022-11-15T12:05:28;9.10;99.90
6948;DHT22;3513;47.664;9.162;2022-11-15T12:08:03;9.20;99.90
6948;DHT22;3513;47.664;9.162;2022-11-15T12:10:30;9.20;99.90
6948;DHT22;3513;47.664;9.162;2022-11-15T12:13:10;9.20;99.90
6948;DHT22;3513;47.664;9.162;2022-11-15T12:15:53;9.30;99.90
6948;DHT22;3513;47.664;9.162;2022-11-15T12:18:22;9.40;99.90
6948;DHT22;3513;47.664;9.162;2022-11-15T12:20:56;9.50;99.90
6948;DHT22;3513;47.664;9.162;2022-11-15T12:23:32;9.50;99.90
6948;DHT22;3513;47.664;9.162;2022-11-15T12:26:08;9.50;99.90
6948;DHT22;3513;47.664;9.162;2022-11-15T12:29:03;9.60;99.90
6948;DHT22;3513;47.664;9.162;2022-11-15T12:31:43;9.70;99.90
6948;DHT22;3513;47.664;9.162;2022-11-15T12:36:51;9.90;99.90
6948;DHT22;3513;47.664;9.162;2022-11-15T12:39:20;10.00;99.90
6948;DHT22;3513;47.664;9.162;2022-11-15T12:47:22;10.10;99.90
6948;DHT22;3513;47.664;9.162;2022-11-15T12:49:48;10.10;99.90
6948;DHT22;3513;47.664;9.162;2022-11-15T12:52:14;10.20;99.90
6948;DHT22;3513;47.664;9.162;2022-11-15T12:59:57;10.30;99.90
6948;DHT22;3513;47.664;9.162;2022-11-15T13:02:32;10.30;99.90
6948;DHT22;3513;47.664;9.162;2022-11-15T13:07:59;10.40;99.90
6948;DHT22;3513;47.664;9.162;2022-11-15T13:12:54;10.50;99.90
6948;DHT22;3513;47.664;9.162;2022-11-15T13:17:49;10.50;99.90
6948;DHT22;3513;47.664;9.162;2022-11-15T13:28:32;10.50;99.90
6948;DHT22;3513;47.664;9.162;2022-11-15T13:31:01;10.50;99.90
6948;DHT22;3513;47.664;9.162;2022-11-15T13:33:34;10.50;99.90
6948;DHT22;3513;47.664;9.162;2022-11-15T13:36:07;10.50;99.90
6948;DHT22;3513;47.664;9.162;2022-11-15T13:38:37;10.50;99.90
6948;DHT22;3513;47.664;9.162;2022-11-15T13:41:22;10.40;99.90
6948;DHT22;3513;47.664;9.162;2022-11-15T13:43:49;10.40;99.90
6948;DHT22;3513;47.664;9.162;2022-11-15T13:46:24;10.40;99.90
6948;DHT22;3513;47.664;9.162;2022-11-15T13:49:12;10.40;99.90
6948;DHT22;3513;47.664;9.162;2022-11-15T13:51:49;10.40;99.90
6948;DHT22;3513;47.664;9.162;2022-11-15T13:54:18;10.30;99.90
6948;DHT22;3513;47.664;9.162;2022-11-15T13:56:53;11.10;99.90
6948;DHT22;3513;47.664;9.162;2022-11-15T13:59:31;10.30;99.90
6948;DHT22;3513;47.664;9.162;2022-11-15T14:02:03;10.30;99.90
6948;DHT22;3513;47.664;9.162;2022-11-15T14:04:55;10.30;99.90
6948;DHT22;3513;47.664;9.162;2022-11-15T14:07:24;10.30;99.90
6948;DHT22;3513;47.664;9.162;2022-11-15T14:09:50;10.30;99.90
6948;DHT22;3513;47.664;9.162;2022-11-15T14:12:32;10.20;99.90
6948;DHT22;3513;47.664;9.162;2022-11-15T14:17:44;10.20;99.90
6948;DHT22;3513;47.664;9.162;2022-11-15T14:20:33;10.10;99.90
6948;DHT22;3513;47.664;9.162;2022-11-15T14:23:02;10.10;99.90
6948;DHT22;3513;47.664;9.162;2022-11-15T14:25:31;10.10;99.90
6948;DHT22;3513;47.664;9.162;2022-11-15T14:28:11;10.10;99.90
6948;DHT22;3513;47.664;9.162;2022-11-15T14:30:38;10.10;99.90
6948;DHT22;3513;47.664;9.162;2022-11-15T14:33:25;10.10;99.90
6948;DHT22;3513;47.664;9.162;2022-11-15T14:35:53;10.10;99.90
6948;DHT22;3513;47.664;9.162;2022-11-15T14:38:21;10.00;99.90
6948;DHT22;3513;47.664;9.162;2022-11-15T14:40:47;10.10;99.90
6948;DHT22;3513;47.664;9.162;2022-11-15T14:43:13;10.00;99.90
6948;DHT22;3513;47.664;9.162;2022-11-15T14:45:39;10.00;99.90
6948;DHT22;3513;47.664;9.162;2022-11-15T14:48:05;10.00;99.90
6948;DHT22;3513;47.664;9.162;2022-11-15T14:50:32;9.90;99.90
6948;DHT22;3513;47.664;9.162;2022-11-15T14:52:58;9.90;99.90
6948;DHT22;3513;47.664;9.162;2022-11-15T14:55:26;9.90;99.90
6948;DHT22;3513;47.664;9.162;2022-11-15T14:57:54;9.90;99.90
6948;DHT22;3513;47.664;9.162;2022-11-15T15:00:26;9.90;99.90
6948;DHT22;3513;47.664;9.162;2022-11-15T15:02:53;9.90;99.90
6948;DHT22;3513;47.664;9.162;2022-11-15T15:05:27;9.90;99.90
6948;DHT22;3513;47.664;9.162;2022-11-15T15:07:55;9.80;99.90
6948;DHT22;3513;47.664;9.162;2022-11-15T15:10:20;9.80;99.90
6948;DHT22;3513;47.664;9.162;2022-11-15T15:12:46;8.40;99.90
6948;DHT22;3513;47.664;9.162;2022-11-15T15:15:24;9.80;99.90
6948;DHT22;3513;47.664;9.162;2022-11-15T15:17:50;9.80;99.90
6948;DHT22;3513;47.664;9.162;2022-11-15T15:20:16;9.80;99.90
6948;DHT22;3513;47.664;9.162;2022-11-15T15:22:45;9.80;99.90
6948;DHT22;3513;47.664;9.162;2022-11-15T15:25:28;9.80;99.90
6948;DHT22;3513;47.664;9.162;2022-11-15T15:27:55;9.80;99.90
6948;DHT22;3513;47.664;9.162;2022-11-15T15:30:22;9.80;99.90
6948;DHT22;3513;47.664;9.162;2022-11-15T15:32:48;9.80;99.90
6948;DHT22;3513;47.664;9.162;2022-11-15T15:35:14;9.80;99.90
6948;DHT22;3513;47.664;9.162;2022-11-15T15:37:41;9.70;99.90
6948;DHT22;3513;47.664;9.162;2022-11-15T15:40:15;9.70;99.90
6948;DHT22;3513;47.664;9.162;2022-11-15T15:42:41;9.70;99.90
6948;DHT22;3513;47.664;9.162;2022-11-15T15:45:08;9.70;99.90
6948;DHT22;3513;47.664;9.162;2022-11-15T15:47:34;9.60;99.90
6948;DHT22;3513;47.664;9.162;2022-11-15T15:50:00;9.60;99.90
6948;DHT22;3513;47.664;9.162;2022-11-15T15:52:25;9.60;99.90
6948;DHT22;3513;47.664;9.162;2022-11-15T15:54:51;9.50;99.90
6948;DHT22;3513;47.664;9.162;2022-11-15T15:57:16;9.50;99.90
6948;DHT22;3513;47.664;9.162;2022-11-15T15:59:42;9.50;99.90
6948;DHT22;3513;47.664;9.162;2022-11-15T16:02:11;9.50;99.90
6948;DHT22;3513;47.664;9.162;2022-11-15T16:04:37;9.50;99.90
6948;DHT22;3513;47.664;9.162;2022-11-15T16:07:03;9.50;99.90
6948;DHT22;3513;47.664;9.162;2022-11-15T16:09:30;9.50;99.90
6948;DHT22;3513;47.664;9.162;2022-11-15T16:12:14;9.40;99.90
6948;DHT22;3513;47.664;9.162;2022-11-15T16:14:42;9.50;99.90
6948;DHT22;3513;47.664;9.162;2022-11-15T16:17:16;9.50;99.90
6948;DHT22;3513;47.664;9.162;2022-11-15T16:19:42;9.40;99.90
6948;DHT22;3513;47.664;9.162;2022-11-15T16:22:08;9.40;99.90
6948;DHT22;3513;47.664;9.162;2022-11-15T16:24:33;9.40;99.90
6948;DHT22;3513;47.664;9.162;2022-11-15T16:26:59;9.50;99.90
6948;DHT22;3513;47.664;9.162;2022-11-15T16:29:25;9.50;99.90
6948;DHT22;3513;47.664;9.162;2022-11-15T16:31:50;9.50;99.90
6948;DHT22;3513;47.664;9.162;2022-11-15T16:34:16;9.50;99.90
6948;DHT22;3513;47.664;9.162;2022-11-15T16:36:42;9.50;99.90
6948;DHT22;3513;47.664;9.162;2022-11-15T16:39:11;9.50;99.90
6948;DHT22;3513;47.664;9.162;2022-11-15T16:41:39;9.50;99.90
6948;DHT22;3513;47.664;9.162;2022-11-15T16:44:05;9.50;99.90
6948;DHT22;3513;47.664;9.162;2022-11-15T16:46:30;9.50;99.90
6948;DHT22;3513;47.664;9.162;2022-11-15T16:48:57;9.40;99.90
6948;DHT22;3513;47.664;9.162;2022-11-15T16:51:22;9.40;99.90
6948;DHT22;3513;47.664;9.162;2022-11-15T16:53:48;9.40;99.90
6948;DHT22;3513;47.664;9.162;2022-11-15T16:56:21;9.30;99.90
6948;DHT22;3513;47.664;9.162;2022-11-15T16:58:48;9.30;99.90
6948;DHT22;3513;47.664;9.162;2022-11-15T17:01:20;9.40;99.90
6948;DHT22;3513;47.664;9.162;2022-11-15T17:03:47;9.30;99.90
6948;DHT22;3513;47.664;9.162;2022-11-15T17:06:13;9.30;99.90
6948;DHT22;3513;47.664;9.162;2022-11-15T17:08:40;9.30;99.90
6948;DHT22;3513;47.664;9.162;2022-11-15T17:11:06;9.40;99.90
6948;DHT22;3513;47.664;9.162;2022-11-15T17:13:32;9.30;99.90
6948;DHT22;3513;47.664;9.162;2022-11-15T17:16:10;9.30;99.90
6948;DHT22;3513;47.664;9.162;2022-11-15T17:18:38;9.20;99.90
6948;DHT22;3513;47.664;9.162;2022-11-15T17:21:13;9.20;99.90
6948;DHT22;3513;47.664;9.162;2022-11-15T17:23:40;9.20;99.90
6948;DHT22;3513;47.664;9.162;2022-11-15T17:26:06;9.10;99.90
6948;DHT22;3513;47.664;9.162;2022-11-15T17:28:33;9.20;99.90
6948;DHT22;3513;47.664;9.162;2022-11-15T17:30:59;9.10;99.90
6948;DHT22;3513;47.664;9.162;2022-11-15T17:33:25;9.10;99.90
6948;DHT22;3513;47.664;9.162;2022-11-15T17:35:55;9.10;99.90
6948;DHT22;3513;47.664;9.162;2022-11-15T17:38:21;9.20;99.90
6948;DHT22;3513;47.664;9.162;2022-11-15T17:40:47;9.20;99.90
6948;DHT22;3513;47.664;9.162;2022-11-15T17:43:12;9.20;99.90
6948;DHT22;3513;47.664;9.162;2022-11-15T17:45:41;9.20;99.90
6948;DHT22;3513;47.664;9.162;2022-11-15T17:48:06;9.20;99.90
6948;DHT22;3513;47.664;9.162;2022-11-15T17:50:32;9.20;99.90
6948;DHT22;3513;47.664;9.162;2022-11-15T17:52:59;9.30;99.90
6948;DHT22;3513;47.664;9.162;2022-11-15T17:55:25;9.30;99.90
6948;DHT22;3513;47.664;9.162;2022-11-15T17:57:50;9.30;99.90
6948;DHT22;3513;47.664;9.162;2022-11-15T18:00:16;9.30;99.90
6948;DHT22;3513;47.664;9.162;2022-11-15T18:02:45;9.30;99.90
6948;DHT22;3513;47.664;9.162;2022-11-15T18:05:13;9.30;99.90
6948;DHT22;3513;47.664;9.162;2022-11-15T18:07:39;9.30;99.90
6948;DHT22;3513;47.664;9.162;2022-11-15T18:10:05;9.40;99.90
6948;DHT22;3513;47.664;9.162;2022-11-15T18:12:30;9.30;99.90
6948;DHT22;3513;47.664;9.162;2022-11-15T18:14:56;9.30;99.90
6948;DHT22;3513;47.664;9.162;2022-11-15T18:17:22;9.20;99.90
6948;DHT22;3513;47.664;9.162;2022-11-15T18:19:48;9.20;99.90
6948;DHT22;3513;47.664;9.162;2022-11-15T18:22:14;9.20;99.90
6948;DHT22;3513;47.664;9.162;2022-11-15T18:24:39;9.20;99.90
6948;DHT22;3513;47.664;9.162;2022-11-15T18:27:07;9.20;99.90